Time;durP1;ratioP1;P1;durP2;ratioP2;P2;SDS_P1;SDS_P2;PMS_P1;PMS_P2;Temp;Humidity;BMP_temperature;BMP_pressure;BME280_temperature;BME280_humidity;BME280_pressure;Samples;Min_cycle;Max_cycle;Signal;HPM_P1;HPM_P2
2022/07/15 00:00:13;;;;;;;2.73;1.10;;;23.30;99.90;;;;;;1047005;28;20802;-72
2022/07/15 00:00:43;;;;;;;2.40;1.10;;;23.30;99.90;;;;;;1047215;28;20418;-72
2022/07/15 00:01:14;;;;;;;1.40;0.70;;;23.30;99.90;;;;;;1047242;28;20655;-72
2022/07/15 00:01:45;;;;;;;2.30;1.23;;;23.40;99.90;;;;;;1046608;28;20008;-71
2022/07/15 00:02:16;;;;;;;3.30;1.50;;;23.30;99.90;;;;;;1047682;28;20528;-71
2022/07/15 00:02:47;;;;;;;2.65;1.00;;;23.30;99.90;;;;;;1046916;28;20706;-72
2022/07/15 00:03:17;;;;;;;2.30;1.07;;;23.30;99.90;;;;;;1047288;28;20009;-71
2022/07/15 00:03:49;;;;;;;2.43;0.97;;;23.30;99.90;;;;;;1046974;28;20440;-72
2022/07/15 00:04:20;;;;;;;2.55;1.30;;;23.30;99.90;;;;;;1047299;28;20004;-72
2022/07/15 00:04:51;;;;;;;3.13;0.87;;;23.30;99.90;;;;;;1047375;28;20031;-71
2022/07/15 00:05:21;;;;;;;1.83;1.07;;;23.30;99.90;;;;;;1047666;28;20043;-72
2022/07/15 00:05:52;;;;;;;1.27;0.80;;;23.30;99.90;;;;;;1046673;28;20027;-71
2022/07/15 00:06:22;;;;;;;1.40;0.70;;;23.30;99.90;;;;;;1047258;28;20044;-71
2022/07/15 00:06:53;;;;;;;2.97;1.20;;;23.30;99.90;;;;;;1046995;28;20027;-71
2022/07/15 00:07:23;;;;;;;4.80;0.90;;;23.30;99.90;;;;;;1047338;28;20104;-71
2022/07/15 00:07:54;;;;;;;1.77;1.00;;;23.30;99.90;;;;;;1047297;28;20412;-71
2022/07/15 00:08:27;;;;;;;2.00;1.13;;;23.30;99.90;;;;;;1046881;28;20019;-71
2022/07/15 00:08:57;;;;;;;1.83;0.75;;;23.30;99.90;;;;;;1047021;28;20059;-71
2022/07/15 00:10:23;;;;;;;2.72;1.38;;;23.30;99.90;;;;;;1045709;28;20564;-71
2022/07/15 00:10:54;;;;;;;1.83;0.88;;;23.30;99.90;;;;;;1043290;28;20020;-71
2022/07/15 00:11:24;;;;;;;3.43;1.27;;;23.30;99.90;;;;;;1043374;28;20016;-71
2022/07/15 00:11:58;;;;;;;2.33;1.00;;;23.30;99.90;;;;;;1042819;28;20071;-71
2022/07/15 00:12:28;;;;;;;1.92;1.00;;;23.30;99.90;;;;;;1043186;28;20021;-71
2022/07/15 00:13:00;;;;;;;2.00;0.93;;;23.30;99.90;;;;;;1042845;28;20014;-71
2022/07/15 00:13:31;;;;;;;3.67;1.35;;;23.30;99.90;;;;;;1043073;28;20701;-71
2022/07/15 00:14:02;;;;;;;1.03;0.80;;;23.30;99.90;;;;;;1042853;28;20555;-71
2022/07/15 00:14:32;;;;;;;3.70;1.00;;;23.20;99.90;;;;;;1043117;28;20100;-71
2022/07/15 00:15:03;;;;;;;2.63;1.03;;;23.30;99.90;;;;;;1042930;28;20088;-71
2022/07/15 00:15:34;;;;;;;1.85;1.10;;;23.20;99.90;;;;;;1042881;28;20511;-71
2022/07/15 00:16:05;;;;;;;3.53;1.37;;;23.20;99.90;;;;;;1042798;28;20075;-71
2022/07/15 00:16:35;;;;;;;3.73;1.10;;;23.20;99.90;;;;;;1038995;28;20116;-71
2022/07/15 00:17:07;;;;;;;3.10;1.23;;;23.20;99.90;;;;;;1034631;28;20057;-71
2022/07/15 00:17:38;;;;;;;2.10;1.20;;;23.20;99.90;;;;;;1038984;28;20040;-71
2022/07/15 00:18:09;;;;;;;1.65;0.80;;;23.20;99.90;;;;;;1038987;28;20026;-71
2022/07/15 00:18:40;;;;;;;1.87;0.80;;;23.20;99.90;;;;;;1039306;28;20028;-71
2022/07/15 00:19:11;;;;;;;1.80;1.00;;;23.20;99.90;;;;;;1038613;28;20073;-71
2022/07/15 00:19:41;;;;;;;1.87;0.80;;;23.20;99.90;;;;;;1034792;28;20041;-71
2022/07/15 00:20:13;;;;;;;1.60;0.97;;;23.20;99.90;;;;;;1034778;28;20108;-71
2022/07/15 00:20:44;;;;;;;1.10;0.80;;;23.20;99.90;;;;;;1039262;28;20080;-71
2022/07/15 00:21:15;;;;;;;2.05;0.90;;;23.20;99.90;;;;;;1043008;28;20751;-71
2022/07/15 00:21:46;;;;;;;0.67;0.67;;;23.20;99.90;;;;;;1042691;28;20754;-71
2022/07/15 00:22:16;;;;;;;2.07;0.90;;;23.20;99.90;;;;;;1042846;28;20021;-72
2022/07/15 00:22:48;;;;;;;2.40;0.90;;;23.20;99.90;;;;;;1042935;28;20045;-71
2022/07/15 00:23:18;;;;;;;1.20;0.90;;;23.20;99.90;;;;;;1043094;28;20016;-71
2022/07/15 00:23:49;;;;;;;1.43;0.90;;;23.30;99.90;;;;;;1042724;28;20507;-72
2022/07/15 00:24:19;;;;;;;2.50;1.37;;;23.20;99.90;;;;;;1043063;28;20134;-72
2022/07/15 00:24:50;;;;;;;1.80;0.73;;;23.20;99.90;;;;;;1042808;28;20023;-71
2022/07/15 00:25:21;;;;;;;1.23;0.90;;;23.20;99.90;;;;;;1043032;28;20025;-72
2022/07/15 00:25:51;;;;;;;2.93;1.30;;;23.20;99.90;;;;;;1043053;28;20028;-71
2022/07/15 00:26:22;;;;;;;2.73;0.97;;;23.30;99.90;;;;;;1043374;28;20013;-71
2022/07/15 00:26:53;;;;;;;2.10;0.90;;;23.20;99.90;;;;;;1042690;28;20013;-71
2022/07/15 00:27:24;;;;;;;2.30;0.90;;;23.20;99.90;;;;;;1038891;28;20021;-72
2022/07/15 00:27:58;;;;;;;2.28;1.02;;;23.20;99.90;;;;;;1034515;28;20034;-72
2022/07/15 00:28:28;;;;;;;1.77;0.95;;;23.20;99.90;;;;;;1035343;28;20468;-72
2022/07/15 00:28:59;;;;;;;2.83;1.30;;;23.20;99.90;;;;;;1035098;28;20450;-72
2022/07/15 00:29:30;;;;;;;2.23;0.83;;;23.20;99.90;;;;;;1039347;28;20040;-71
2022/07/15 00:30:01;;;;;;;1.85;0.75;;;23.10;99.90;;;;;;1042754;28;20021;-72
2022/07/15 00:30:34;;;;;;;2.63;1.07;;;23.10;99.90;;;;;;1043023;28;20116;-72
2022/07/15 00:31:05;;;;;;;2.33;1.08;;;23.10;99.90;;;;;;1043101;28;20093;-72
2022/07/15 00:31:36;;;;;;;1.97;1.00;;;23.10;99.90;;;;;;1043448;28;20408;-72
2022/07/15 00:32:06;;;;;;;2.37;1.00;;;23.10;99.90;;;;;;1042964;28;20112;-71
2022/07/15 00:32:37;;;;;;;1.40;0.80;;;23.10;99.90;;;;;;1043107;28;20025;-71
2022/07/15 00:33:09;;;;;;;3.67;1.17;;;23.10;99.90;;;;;;1042707;28;20017;-71
2022/07/15 00:33:39;;;;;;;1.98;1.17;;;23.00;99.90;;;;;;1042953;28;20087;-71
2022/07/15 00:34:10;;;;;;;2.13;1.03;;;23.10;99.90;;;;;;1038857;28;20051;-71
2022/07/15 00:34:41;;;;;;;1.40;1.10;;;23.00;99.90;;;;;;1042958;28;20172;-71
2022/07/15 00:35:11;;;;;;;1.57;0.90;;;23.00;99.90;;;;;;1042643;28;20096;-71
2022/07/15 00:35:42;;;;;;;3.90;1.60;;;23.00;99.90;;;;;;1043051;28;20048;-71
2022/07/15 00:36:12;;;;;;;1.93;1.10;;;23.00;99.90;;;;;;1043019;28;20070;-71
2022/07/15 00:36:44;;;;;;;1.97;0.90;;;23.00;99.90;;;;;;1042881;28;20066;-71
2022/07/15 00:37:14;;;;;;;1.67;1.00;;;23.00;99.90;;;;;;1042801;28;20088;-71
2022/07/15 00:37:46;;;;;;;1.83;0.97;;;23.00;99.90;;;;;;1043008;28;20021;-71
2022/07/15 00:38:17;;;;;;;1.95;0.90;;;23.00;99.90;;;;;;1042481;28;20056;-71
2022/07/15 00:38:48;;;;;;;2.38;1.10;;;23.00;99.90;;;;;;1043405;28;20035;-71
2022/07/15 00:39:18;;;;;;;2.10;1.00;;;23.00;99.90;;;;;;1043076;28;20113;-72
2022/07/15 00:39:49;;;;;;;1.70;0.93;;;23.00;99.90;;;;;;1042712;28;20025;-71
2022/07/15 00:40:20;;;;;;;2.70;1.23;;;23.00;99.90;;;;;;1042611;28;20443;-71
2022/07/15 00:40:50;;;;;;;1.23;0.90;;;23.00;99.90;;;;;;1043059;28;20036;-71
2022/07/15 00:41:21;;;;;;;1.33;0.80;;;23.00;99.90;;;;;;1042772;28;20025;-71
2022/07/15 00:41:52;;;;;;;1.03;0.80;;;23.00;99.90;;;;;;1042582;28;20060;-71
2022/07/15 00:43:12;;;;;;;2.47;1.05;;;23.00;99.90;;;;;;1041455;28;20707;-71
2022/07/15 00:43:43;;;;;;;2.03;1.13;;;23.10;99.90;;;;;;1042601;28;20033;-71
2022/07/15 00:44:14;;;;;;;2.73;1.03;;;23.10;99.90;;;;;;1042782;28;20032;-71
2022/07/15 00:44:45;;;;;;;3.67;1.20;;;23.10;99.90;;;;;;1042639;28;20301;-72
2022/07/15 00:45:20;;;;;;;3.33;1.17;;;23.10;99.90;;;;;;1042926;28;20266;-72
2022/07/15 00:45:52;;;;;;;1.40;0.90;;;23.10;99.90;;;;;;1042607;28;20657;-72
2022/07/15 00:46:23;;;;;;;1.75;1.00;;;23.00;99.90;;;;;;1043379;28;20141;-72
2022/07/15 00:46:54;;;;;;;2.07;0.80;;;23.00;99.90;;;;;;1043062;28;20036;-72
2022/07/15 00:47:24;;;;;;;2.37;1.03;;;23.10;99.90;;;;;;1042731;28;20072;-72
2022/07/15 00:47:56;;;;;;;1.57;0.80;;;23.00;99.90;;;;;;1042805;28;20255;-72
2022/07/15 00:48:27;;;;;;;1.27;0.90;;;23.10;99.90;;;;;;1042856;28;20029;-71
2022/07/15 00:48:59;;;;;;;1.83;0.90;;;23.10;99.90;;;;;;1042850;28;20021;-72
2022/07/15 00:49:29;;;;;;;2.10;0.73;;;23.10;99.90;;;;;;1044294;28;20106;-71
2022/07/15 00:50:00;;;;;;;3.70;1.47;;;23.10;99.90;;;;;;1047250;28;20024;-71
2022/07/15 00:50:31;;;;;;;1.30;0.87;;;23.10;99.90;;;;;;1047448;28;20485;-72
2022/07/15 00:51:02;;;;;;;2.00;1.10;;;23.10;99.90;;;;;;1046776;28;20020;-72
2022/07/15 00:51:41;;;;;;;2.03;0.90;;;23.10;99.90;;;;;;1046855;28;20024;-73
2022/07/15 00:52:12;;;;;;;2.08;1.10;;;23.00;99.90;;;;;;1046839;28;20016;-72
2022/07/15 00:52:52;;;;;;;3.42;1.33;;;23.00;99.90;;;;;;1047199;28;20023;-72
2022/07/15 00:53:28;;;;;;;2.28;0.95;;;23.00;99.90;;;;;;1045168;28;20435;-71
2022/07/15 00:53:58;;;;;;;3.08;1.25;;;23.00;99.90;;;;;;1042587;28;20025;-72
2022/07/15 00:54:29;;;;;;;2.07;1.00;;;23.00;99.90;;;;;;1038579;28;20381;-72
2022/07/15 00:55:03;;;;;;;1.60;0.80;;;23.00;99.90;;;;;;1038513;28;20029;-72
2022/07/15 00:55:40;;;;;;;1.70;1.00;;;23.00;99.90;;;;;;1038661;28;20071;-72
2022/07/15 00:56:13;;;;;;;1.92;0.95;;;23.00;99.90;;;;;;1039574;28;20021;-72
2022/07/15 00:56:51;;;;;;;1.35;0.90;;;22.90;99.90;;;;;;1038456;28;20032;-72
2022/07/15 00:57:24;;;;;;;2.55;0.80;;;22.90;99.90;;;;;;1034410;28;20065;-73
2022/07/15 00:57:59;;;;;;;1.85;0.85;;;22.90;99.90;;;;;;1034546;28;20120;-72
2022/07/15 00:58:36;;;;;;;1.88;0.85;;;22.90;99.90;;;;;;1032447;28;20434;-71
2022/07/15 00:59:07;;;;;;;2.42;0.98;;;22.90;99.90;;;;;;1036326;28;20022;-72
2022/07/15 00:59:38;;;;;;;1.45;0.80;;;22.80;99.90;;;;;;1040414;28;20138;-72
2022/07/15 01:00:10;;;;;;;1.48;0.90;;;22.80;99.90;;;;;;1039399;28;20037;-72
2022/07/15 01:00:43;;;;;;;2.88;1.00;;;22.90;99.90;;;;;;1042809;28;20028;-72
2022/07/15 01:01:18;;;;;;;1.92;0.90;;;22.90;99.90;;;;;;1042618;28;20112;-72
2022/07/15 01:01:50;;;;;;;2.70;0.95;;;22.90;99.90;;;;;;1042374;28;20021;-72
2022/07/15 01:02:21;;;;;;;1.40;0.73;;;22.90;99.90;;;;;;1042785;28;20028;-73
2022/07/15 01:02:53;;;;;;;3.57;1.40;;;22.90;99.90;;;;;;1042795;28;20044;-72
2022/07/15 01:03:27;;;;;;;2.63;1.00;;;22.80;99.90;;;;;;1042466;28;20522;-71
2022/07/15 01:03:59;;;;;;;2.78;1.15;;;22.80;99.90;;;;;;1042868;28;20088;-72
2022/07/15 01:04:33;;;;;;;3.47;1.23;;;22.80;99.90;;;;;;1042657;28;20524;-72
2022/07/15 01:05:05;;;;;;;1.45;0.73;;;22.80;99.90;;;;;;1043289;28;20586;-72
2022/07/15 01:05:37;;;;;;;2.00;0.80;;;22.80;99.90;;;;;;1042409;28;20734;-71
2022/07/15 01:06:07;;;;;;;1.98;0.98;;;22.80;99.90;;;;;;1042682;28;20017;-72
2022/07/15 01:06:38;;;;;;;1.33;0.80;;;22.80;99.90;;;;;;1045072;28;20028;-73
2022/07/15 01:07:09;;;;;;;1.73;1.17;;;22.70;99.90;;;;;;1046838;28;20024;-72
2022/07/15 01:07:39;;;;;;;1.90;1.13;;;22.70;99.90;;;;;;1047115;28;20013;-72
2022/07/15 01:08:10;;;;;;;2.83;1.13;;;22.70;99.90;;;;;;1045573;28;20038;-71
2022/07/15 01:08:41;;;;;;;1.83;0.77;;;22.70;99.90;;;;;;1043066;28;20514;-72
2022/07/15 01:09:12;;;;;;;2.70;0.87;;;22.70;99.90;;;;;;1045194;28;20031;-72
2022/07/15 01:09:43;;;;;;;1.58;0.80;;;22.70;99.90;;;;;;1046614;28;20016;-72
2022/07/15 01:10:13;;;;;;;2.22;0.82;;;22.70;99.90;;;;;;1046755;28;20078;-73
2022/07/15 01:10:44;;;;;;;1.70;0.90;;;22.70;99.90;;;;;;1046727;28;20038;-71
2022/07/15 01:11:15;;;;;;;2.15;0.98;;;22.70;99.90;;;;;;1046816;28;20012;-71
2022/07/15 01:11:47;;;;;;;2.70;1.03;;;22.70;99.90;;;;;;1046696;28;20005;-71
2022/07/15 01:12:17;;;;;;;3.20;1.15;;;22.70;99.90;;;;;;1046964;28;20083;-74
2022/07/15 01:12:49;;;;;;;3.50;1.00;;;22.70;99.90;;;;;;1042776;28;20017;-72
2022/07/15 01:13:20;;;;;;;2.28;0.70;;;22.70;99.90;;;;;;1046964;28;20016;-71
2022/07/15 01:13:51;;;;;;;2.83;1.00;;;22.70;99.90;;;;;;1046623;28;20134;-71
2022/07/15 01:14:21;;;;;;;3.30;0.90;;;22.70;99.90;;;;;;1046959;28;20106;-73
2022/07/15 01:14:53;;;;;;;3.33;0.80;;;22.70;99.90;;;;;;1046625;28;20022;-72
2022/07/15 01:15:25;;;;;;;2.38;0.90;;;22.60;99.90;;;;;;1046895;28;20019;-72
2022/07/15 01:15:55;;;;;;;2.25;1.02;;;22.60;99.90;;;;;;1046769;28;20379;-71
2022/07/15 01:16:26;;;;;;;2.90;1.03;;;22.70;99.90;;;;;;1046860;28;20593;-72
2022/07/15 01:16:57;;;;;;;2.23;1.30;;;22.60;99.90;;;;;;1046846;28;20013;-72
2022/07/15 01:17:27;;;;;;;2.37;1.00;;;22.60;99.90;;;;;;1046770;28;20702;-72
2022/07/15 01:17:59;;;;;;;1.53;0.87;;;22.60;99.90;;;;;;1046861;28;20095;-73
2022/07/15 01:18:30;;;;;;;2.20;0.93;;;22.70;99.90;;;;;;1046795;28;20011;-72
2022/07/15 01:19:00;;;;;;;1.37;0.90;;;22.60;99.90;;;;;;1047227;28;20021;-72
2022/07/15 01:19:31;;;;;;;2.30;1.10;;;22.60;99.90;;;;;;1046701;28;20683;-73
2022/07/15 01:20:02;;;;;;;1.93;0.97;;;22.70;99.90;;;;;;1046914;28;20013;-72
2022/07/15 01:20:33;;;;;;;1.55;0.93;;;22.70;99.90;;;;;;1046525;28;20023;-71
2022/07/15 01:21:03;;;;;;;2.67;1.10;;;22.70;99.90;;;;;;1046988;28;20058;-72
2022/07/15 01:21:34;;;;;;;3.03;1.30;;;22.70;99.90;;;;;;1046575;28;20447;-72
2022/07/15 01:22:05;;;;;;;2.20;1.20;;;22.70;99.90;;;;;;1046799;28;20095;-72
2022/07/15 01:22:36;;;;;;;2.60;1.23;;;22.70;99.90;;;;;;1047071;28;20108;-72
2022/07/15 01:23:06;;;;;;;1.70;0.73;;;22.70;99.90;;;;;;1047181;28;20018;-72
2022/07/15 01:23:40;;;;;;;2.60;1.00;;;22.70;99.90;;;;;;1042413;28;20115;-72
2022/07/15 01:24:10;;;;;;;1.65;0.90;;;22.70;99.90;;;;;;1038599;28;20022;-72
2022/07/15 01:24:42;;;;;;;2.27;0.80;;;22.70;99.90;;;;;;1038336;28;20025;-72
2022/07/15 01:25:14;;;;;;;3.40;1.05;;;22.70;99.90;;;;;;1039457;28;20022;-72
2022/07/15 01:25:44;;;;;;;3.25;1.05;;;22.70;99.90;;;;;;1042777;28;20082;-72
2022/07/15 01:26:15;;;;;;;2.07;1.17;;;22.70;99.90;;;;;;1046798;28;20516;-72
2022/07/15 01:26:47;;;;;;;1.45;0.93;;;22.60;99.90;;;;;;1042603;28;20128;-72
2022/07/15 01:27:18;;;;;;;1.85;0.80;;;22.60;99.90;;;;;;1042803;28;20439;-72
2022/07/15 01:27:48;;;;;;;2.50;1.10;;;22.60;99.90;;;;;;1042294;28;20040;-72
2022/07/15 01:28:19;;;;;;;2.47;1.10;;;22.60;99.90;;;;;;1042704;28;20470;-72
2022/07/15 01:28:50;;;;;;;1.97;1.20;;;22.60;99.90;;;;;;1042502;28;20017;-72
2022/07/15 01:29:21;;;;;;;1.63;0.63;;;22.60;99.90;;;;;;1042721;28;20504;-72
2022/07/15 01:29:51;;;;;;;2.83;1.13;;;22.60;99.90;;;;;;1042458;28;20040;-72
2022/07/15 01:30:22;;;;;;;1.47;0.73;;;22.60;99.90;;;;;;1042833;28;20024;-72
2022/07/15 01:30:52;;;;;;;1.07;0.77;;;22.60;99.90;;;;;;1044921;28;20528;-71
2022/07/15 01:31:23;;;;;;;1.73;1.07;;;22.50;99.90;;;;;;1047477;28;20068;-71
2022/07/15 01:31:54;;;;;;;1.93;1.00;;;22.50;99.90;;;;;;1047006;28;20593;-72
2022/07/15 01:32:25;;;;;;;3.03;1.08;;;22.50;99.90;;;;;;1047111;28;20021;-72
2022/07/15 01:32:56;;;;;;;1.70;0.93;;;22.50;99.90;;;;;;1046687;28;20106;-72
2022/07/15 01:33:26;;;;;;;3.17;1.00;;;22.50;99.90;;;;;;1046816;28;20020;-71
2022/07/15 01:33:57;;;;;;;2.33;1.10;;;22.50;99.90;;;;;;1046746;28;20027;-71
2022/07/15 01:34:28;;;;;;;1.90;1.07;;;22.50;99.90;;;;;;1046772;28;20021;-72
2022/07/15 01:34:58;;;;;;;2.60;1.00;;;22.50;99.90;;;;;;1047030;28;20032;-72
2022/07/15 01:35:29;;;;;;;1.77;0.83;;;22.50;99.90;;;;;;1047097;28;20020;-73
2022/07/15 01:36:00;;;;;;;2.53;0.80;;;22.40;99.90;;;;;;1047009;28;20044;-72
2022/07/15 01:36:31;;;;;;;2.10;0.85;;;22.50;99.90;;;;;;1046783;28;20471;-72
2022/07/15 01:37:02;;;;;;;2.83;0.80;;;22.40;99.90;;;;;;1046738;28;20503;-72
2022/07/15 01:37:32;;;;;;;1.30;0.60;;;22.50;99.90;;;;;;1042494;28;20411;-72
2022/07/15 01:38:03;;;;;;;1.70;0.70;;;22.40;99.90;;;;;;1038191;28;20025;-72
2022/07/15 01:38:34;;;;;;;2.77;0.93;;;22.40;99.90;;;;;;1042607;28;20017;-72
2022/07/15 01:39:04;;;;;;;2.10;1.17;;;22.40;99.90;;;;;;1042665;28;20256;-72
2022/07/15 01:39:35;;;;;;;1.00;0.70;;;22.40;99.90;;;;;;1046870;28;20099;-72
2022/07/15 01:40:07;;;;;;;2.47;1.00;;;22.40;99.90;;;;;;1046589;28;20111;-72
2022/07/15 01:40:38;;;;;;;4.40;1.50;;;22.40;99.90;;;;;;1046903;28;20118;-72
2022/07/15 01:41:08;;;;;;;3.20;1.00;;;22.40;99.90;;;;;;1046715;28;20130;-72
2022/07/15 01:41:39;;;;;;;3.13;1.00;;;22.40;99.90;;;;;;1046870;28;20558;-72
2022/07/15 01:42:09;;;;;;;1.93;0.83;;;22.40;99.90;;;;;;1046551;28;20028;-72
2022/07/15 01:42:40;;;;;;;2.57;1.07;;;22.40;99.90;;;;;;1046525;28;20032;-72
2022/07/15 01:43:11;;;;;;;1.67;1.00;;;22.30;99.90;;;;;;1046816;28;20352;-73
2022/07/15 01:43:42;;;;;;;3.10;1.10;;;22.30;99.90;;;;;;1046880;28;20650;-73
2022/07/15 01:44:14;;;;;;;4.43;1.50;;;22.30;99.90;;;;;;1046794;28;20017;-73
2022/07/15 01:44:44;;;;;;;3.42;1.10;;;22.30;99.90;;;;;;1046998;28;20572;-72
2022/07/15 01:45:15;;;;;;;2.77;1.17;;;22.30;99.90;;;;;;1046888;28;20127;-73
2022/07/15 01:45:46;;;;;;;1.97;0.90;;;22.30;99.90;;;;;;1046358;28;20457;-72
2022/07/15 01:46:17;;;;;;;2.25;1.13;;;22.30;99.90;;;;;;1046765;28;20032;-72
2022/07/15 01:46:47;;;;;;;1.97;0.90;;;22.30;99.90;;;;;;1046570;28;20020;-73
2022/07/15 01:47:18;;;;;;;2.00;1.00;;;22.30;99.90;;;;;;1046832;28;20025;-72
2022/07/15 01:47:49;;;;;;;2.10;1.00;;;22.30;99.90;;;;;;1046543;28;20025;-73
2022/07/15 01:49:22;;;;;;;1.83;0.90;;;22.30;99.90;;;;;;1046927;28;20047;-73
2022/07/15 01:49:52;;;;;;;1.58;1.13;;;22.30;99.90;;;;;;1046919;28;20023;-72
2022/07/15 01:50:23;;;;;;;3.07;1.03;;;22.30;99.90;;;;;;1046758;28;20027;-73
2022/07/15 01:50:56;;;;;;;1.70;1.08;;;22.30;99.90;;;;;;1046505;28;20097;-73
2022/07/15 01:51:27;;;;;;;2.60;0.77;;;22.30;99.90;;;;;;1046818;28;20415;-73
2022/07/15 01:52:00;;;;;;;1.13;0.70;;;22.40;99.90;;;;;;1046567;28;20561;-73
2022/07/15 01:52:30;;;;;;;1.10;0.60;;;22.40;99.90;;;;;;1046759;28;20013;-73
2022/07/15 01:53:04;;;;;;;0.90;0.63;;;22.40;99.90;;;;;;1047063;28;20032;-72
2022/07/15 01:53:34;;;;;;;1.52;0.90;;;22.40;99.90;;;;;;1047210;28;20093;-73
2022/07/15 01:54:05;;;;;;;2.90;0.90;;;22.40;99.90;;;;;;1046931;28;20024;-73
2022/07/15 01:54:36;;;;;;;2.07;0.97;;;22.40;99.90;;;;;;1046736;28;20046;-73
2022/07/15 01:55:08;;;;;;;1.35;0.90;;;22.40;99.90;;;;;;1046411;28;20039;-73
2022/07/15 01:55:39;;;;;;;2.15;1.17;;;22.40;99.90;;;;;;1046784;28;20054;-73
2022/07/15 01:56:10;;;;;;;1.47;0.80;;;22.40;99.90;;;;;;1046620;28;20115;-74
2022/07/15 01:56:41;;;;;;;2.37;1.30;;;22.40;99.90;;;;;;1042734;28;20029;-73
2022/07/15 01:57:11;;;;;;;1.93;0.80;;;22.40;99.90;;;;;;1042613;28;20052;-73
2022/07/15 01:57:42;;;;;;;1.27;0.80;;;22.40;99.90;;;;;;1046812;28;20035;-73
2022/07/15 01:58:13;;;;;;;2.43;0.80;;;22.40;99.90;;;;;;1046532;28;20103;-73
2022/07/15 01:58:43;;;;;;;3.23;1.37;;;22.50;99.90;;;;;;1047289;28;20043;-73
2022/07/15 01:59:14;;;;;;;2.77;1.13;;;22.40;99.90;;;;;;1046873;28;20067;-73
2022/07/15 01:59:45;;;;;;;3.13;0.90;;;22.40;99.90;;;;;;1046783;28;20039;-73
2022/07/15 02:00:17;;;;;;;2.40;1.00;;;22.40;99.90;;;;;;1046664;28;20020;-73
2022/07/15 02:00:49;;;;;;;2.63;0.90;;;22.40;99.90;;;;;;1046648;28;20075;-73
2022/07/15 02:01:19;;;;;;;3.03;1.23;;;22.50;99.90;;;;;;1046578;28;20013;-73
2022/07/15 02:01:51;;;;;;;1.67;0.80;;;22.40;99.90;;;;;;1046259;28;20463;-73
2022/07/15 02:02:22;;;;;;;1.77;1.00;;;22.50;99.90;;;;;;1042260;28;20029;-73
2022/07/15 02:02:53;;;;;;;2.07;1.00;;;22.40;99.90;;;;;;1042887;28;20021;-72
2022/07/15 02:03:24;;;;;;;2.63;1.08;;;22.40;99.90;;;;;;1042439;28;20020;-72
2022/07/15 02:03:54;;;;;;;1.50;0.70;;;22.40;99.90;;;;;;1042480;28;20032;-72
2022/07/15 02:04:26;;;;;;;1.77;0.90;;;22.40;99.90;;;;;;1038216;28;20045;-72
2022/07/15 02:04:56;;;;;;;2.22;0.95;;;22.40;99.90;;;;;;1038874;28;20025;-72
2022/07/15 02:05:27;;;;;;;3.90;1.40;;;22.40;99.90;;;;;;1042578;28;20017;-72
2022/07/15 02:05:57;;;;;;;2.50;0.90;;;22.40;99.90;;;;;;1042784;28;20021;-72
2022/07/15 02:06:29;;;;;;;1.60;0.80;;;22.40;99.90;;;;;;1046437;28;20523;-72
2022/07/15 02:06:59;;;;;;;1.88;1.00;;;22.40;99.90;;;;;;1046825;28;20187;-71
2022/07/15 02:07:30;;;;;;;0.93;0.70;;;22.40;99.90;;;;;;1046501;28;20016;-71
2022/07/15 02:08:02;;;;;;;1.73;0.93;;;22.40;99.90;;;;;;1047320;28;20036;-71
2022/07/15 02:08:32;;;;;;;3.47;1.23;;;22.40;99.90;;;;;;1039246;28;20135;-71
2022/07/15 02:09:03;;;;;;;2.23;0.90;;;22.40;99.90;;;;;;1044392;28;20081;-71
2022/07/15 02:09:34;;;;;;;2.53;1.03;;;22.30;99.90;;;;;;1043154;28;20120;-71
2022/07/15 02:10:05;;;;;;;4.57;1.00;;;22.30;99.90;;;;;;1043503;28;20052;-71
2022/07/15 02:10:42;;;;;;;2.30;0.80;;;22.30;99.90;;;;;;1043636;28;20542;-72
2022/07/15 02:11:12;;;;;;;2.38;0.90;;;22.30;99.90;;;;;;1044290;28;20027;-72
2022/07/15 02:11:44;;;;;;;1.60;0.90;;;22.30;99.90;;;;;;1047416;28;20024;-72
2022/07/15 02:12:15;;;;;;;3.33;0.98;;;22.30;99.90;;;;;;1047878;28;20109;-71
2022/07/15 02:12:45;;;;;;;2.20;1.30;;;22.20;99.90;;;;;;1047261;28;20119;-72
2022/07/15 02:13:16;;;;;;;3.73;1.10;;;22.20;99.90;;;;;;1048036;28;20017;-71
2022/07/15 02:13:46;;;;;;;3.00;0.90;;;22.20;99.90;;;;;;1047683;28;20107;-71
2022/07/15 02:14:17;;;;;;;3.40;1.00;;;22.20;99.90;;;;;;1047564;28;20028;-71
2022/07/15 02:14:48;;;;;;;4.20;1.23;;;22.10;99.90;;;;;;1047335;28;20451;-71
2022/07/15 02:15:18;;;;;;;1.37;0.80;;;22.10;99.90;;;;;;1047578;28;20027;-71
2022/07/15 02:15:49;;;;;;;1.70;0.93;;;22.20;99.90;;;;;;1047353;28;20392;-71
2022/07/15 02:16:19;;;;;;;1.80;0.90;;;22.10;99.90;;;;;;1047713;28;20034;-72
2022/07/15 02:16:50;;;;;;;1.93;0.87;;;22.10;99.90;;;;;;1047598;28;20079;-72
2022/07/15 02:17:21;;;;;;;2.37;1.00;;;22.10;99.90;;;;;;1043379;28;20043;-72
2022/07/15 02:17:52;;;;;;;1.67;0.90;;;22.10;99.90;;;;;;1043423;28;20028;-71
2022/07/15 02:18:22;;;;;;;2.97;0.93;;;22.10;99.90;;;;;;1039288;28;20022;-71
2022/07/15 02:18:53;;;;;;;3.53;1.20;;;22.10;99.90;;;;;;1039451;28;20279;-72
2022/07/15 02:19:24;;;;;;;2.33;0.90;;;22.10;99.90;;;;;;1043382;28;20037;-72
2022/07/15 02:19:54;;;;;;;2.20;0.90;;;22.10;99.90;;;;;;1043444;28;20037;-72
2022/07/15 02:20:25;;;;;;;2.57;1.10;;;22.10;99.90;;;;;;1043157;28;20696;-72
2022/07/15 02:20:56;;;;;;;2.73;1.60;;;22.10;99.90;;;;;;1043615;28;20025;-72
2022/07/15 02:21:27;;;;;;;2.67;1.30;;;22.10;99.90;;;;;;1043001;28;20260;-71
2022/07/15 02:21:58;;;;;;;3.03;0.93;;;22.10;99.90;;;;;;1043844;28;20097;-71
2022/07/15 02:22:29;;;;;;;2.07;0.80;;;22.00;99.90;;;;;;1043078;28;20037;-71
2022/07/15 02:23:01;;;;;;;3.00;1.00;;;22.10;99.90;;;;;;1043478;28;20043;-71
2022/07/15 02:23:31;;;;;;;2.60;0.93;;;22.00;99.90;;;;;;1043191;28;20049;-71
2022/07/15 02:24:02;;;;;;;2.87;1.00;;;22.00;99.90;;;;;;1043568;28;20037;-71
2022/07/15 02:24:33;;;;;;;1.60;1.00;;;22.00;99.90;;;;;;1043002;28;20021;-71
2022/07/15 02:25:04;;;;;;;2.77;1.00;;;22.00;99.90;;;;;;1043512;28;20025;-71
2022/07/15 02:25:35;;;;;;;2.35;1.05;;;22.00;99.90;;;;;;1043147;28;20263;-72
2022/07/15 02:26:06;;;;;;;1.90;0.90;;;22.00;99.90;;;;;;1043675;28;20029;-71
2022/07/15 02:26:36;;;;;;;1.43;0.87;;;22.00;99.90;;;;;;1043209;28;20029;-71
2022/07/15 02:27:07;;;;;;;1.77;1.10;;;22.00;99.90;;;;;;1045678;28;20455;-71
2022/07/15 02:27:38;;;;;;;1.52;0.95;;;22.00;99.90;;;;;;1047268;28;20047;-71
2022/07/15 02:28:08;;;;;;;2.47;1.23;;;22.00;99.90;;;;;;1043343;28;20010;-71
2022/07/15 02:28:39;;;;;;;1.57;0.80;;;22.00;99.90;;;;;;1043194;28;20013;-71
2022/07/15 02:29:10;;;;;;;1.53;0.87;;;22.00;99.90;;;;;;1043455;28;20821;-71
2022/07/15 02:29:41;;;;;;;2.10;1.00;;;22.00;99.90;;;;;;1039337;28;20021;-72
2022/07/15 02:30:12;;;;;;;1.13;0.83;;;22.00;99.90;;;;;;1039456;28;20021;-71
2022/07/15 02:30:43;;;;;;;2.60;1.00;;;21.90;99.90;;;;;;1043367;28;20103;-71
2022/07/15 02:31:14;;;;;;;2.40;0.90;;;22.00;99.90;;;;;;1043618;28;20408;-71
2022/07/15 02:31:45;;;;;;;1.67;0.73;;;21.90;99.90;;;;;;1043262;28;20358;-71
2022/07/15 02:32:16;;;;;;;2.85;1.10;;;22.00;99.90;;;;;;1047416;28;20016;-73
2022/07/15 02:32:46;;;;;;;2.47;0.80;;;22.00;99.90;;;;;;1047230;28;20016;-72
2022/07/15 02:33:17;;;;;;;2.30;0.93;;;22.00;99.90;;;;;;1047589;28;20020;-72
2022/07/15 02:33:48;;;;;;;2.30;0.90;;;21.90;99.90;;;;;;1047156;28;20372;-71
2022/07/15 02:34:19;;;;;;;2.45;1.20;;;22.00;99.90;;;;;;1047369;28;20124;-71
2022/07/15 02:34:49;;;;;;;2.20;1.03;;;21.90;99.90;;;;;;1047174;28;20020;-71
2022/07/15 02:35:20;;;;;;;1.93;1.10;;;21.90;99.90;;;;;;1047554;28;20012;-71
2022/07/15 02:35:50;;;;;;;1.70;0.90;;;21.90;99.90;;;;;;1047265;28;20538;-71
2022/07/15 02:36:21;;;;;;;2.13;1.00;;;22.00;99.90;;;;;;1047896;28;20074;-72
2022/07/15 02:36:52;;;;;;;1.57;0.93;;;21.90;99.90;;;;;;1047076;28;20032;-72
2022/07/15 02:37:22;;;;;;;2.80;1.10;;;22.00;99.90;;;;;;1047678;28;20252;-72
2022/07/15 02:37:53;;;;;;;1.73;0.90;;;21.90;99.90;;;;;;1047388;28;20142;-72
2022/07/15 02:38:24;;;;;;;2.47;1.07;;;21.90;99.90;;;;;;1047402;28;20036;-72
2022/07/15 02:38:55;;;;;;;1.70;0.90;;;21.90;99.90;;;;;;1047449;28;20267;-71
2022/07/15 02:39:26;;;;;;;3.65;1.20;;;21.90;99.90;;;;;;1047242;28;20016;-71
2022/07/15 02:39:56;;;;;;;2.00;0.80;;;21.90;99.90;;;;;;1047644;28;20119;-71
2022/07/15 02:40:28;;;;;;;3.00;0.90;;;21.90;99.90;;;;;;1047337;28;20408;-71
2022/07/15 02:40:59;;;;;;;2.45;1.20;;;21.90;99.90;;;;;;1047850;28;20063;-71
2022/07/15 02:41:30;;;;;;;1.48;1.05;;;21.90;99.90;;;;;;1047177;28;20024;-71
2022/07/15 02:42:01;;;;;;;1.42;0.95;;;21.90;99.90;;;;;;1047460;28;20031;-71
2022/07/15 02:42:31;;;;;;;2.40;1.10;;;21.90;99.90;;;;;;1047149;28;20035;-71
2022/07/15 02:43:02;;;;;;;1.77;1.17;;;21.90;99.90;;;;;;1047675;28;20024;-71
2022/07/15 02:43:34;;;;;;;2.65;1.30;;;21.90;99.90;;;;;;1047235;28;20107;-71
2022/07/15 02:44:07;;;;;;;1.95;0.95;;;21.90;99.90;;;;;;1047375;28;20459;-71
2022/07/15 02:44:37;;;;;;;2.53;1.08;;;21.90;99.90;;;;;;1047330;28;20020;-72
2022/07/15 02:45:08;;;;;;;2.30;1.10;;;21.90;99.90;;;;;;1047412;28;20052;-72